Current Weather

Kalaleh

Kalaleh, Iran (OINE)

Report from: Wednesday, September 28, 2022 8:00 AM UTC
Current time: Wednesday, September 28, 2022 8:56 AM UTC

Nearby weather
Weather history
Weather forecast

Temperature30.0°C (86.0°F)
Heat index31.0°C (87.7°F)
Dew point18.0°C (64.4°F)
Winds 4 kts (2.1 m/s, 4.6 mph) West (280°)
Visibility5 mi. (8 km)
Altimeter29.77 in.Hg (1008 mB)
Relative humidity49 %
Density altitude2,177 ft. (664 m)
Flight conditions Marginal Visual Meteorological Conditions
Raw dataOINE 280800Z 28004KT 8000 NSC 30/18 Q1008
An error has occurred. This application may no longer respond until reloaded. Reload 🗙